Time,TemperatureF,DewpointF,PressureIn,WindDirection,WindDirectionDegrees,WindSpeedMPH,WindSpeedGustMPH,Humidity,HourlyPrecipIn,Conditions,Clouds,dailyrainin,SoftwareType,DateUTC
2013-08-24 00:02:00,58.8,55.3,30.13,ESE,105,0.0,0.0,88,0.00,,,0.00,Wunderground v.1.15,2013-08-24 05:02:00,
2013-08-24 00:08:00,58.6,55.1,30.13,ESE,105,0.0,0.0,88,0.00,,,0.00,Wunderground v.1.15,2013-08-24 05:08:00,
2013-08-24 00:14:00,58.5,55.3,30.13,ESE,105,0.0,0.0,89,0.00,,,0.00,Wunderground v.1.15,2013-08-24 05:14:00,
2013-08-24 00:20:00,58.4,55.5,30.13,ESE,105,0.0,0.0,90,0.00,,,0.00,Wunderground v.1.15,2013-08-24 05:20:00,
2013-08-24 00:26:00,58.2,55.3,30.13,ESE,105,0.0,0.0,90,0.00,,,0.00,Wunderground v.1.15,2013-08-24 05:26:00,
2013-08-24 00:32:00,58.0,55.1,30.13,ESE,105,0.0,0.0,90,0.00,,,0.00,Wunderground v.1.15,2013-08-24 05:32:00,
2013-08-24 00:38:00,57.9,55.0,30.14,ESE,105,0.0,0.0,90,0.00,,,0.00,Wunderground v.1.15,2013-08-24 05:38:00,
2013-08-24 00:44:00,57.8,54.9,30.14,ESE,105,0.0,0.0,90,0.00,,,0.00,Wunderground v.1.15,2013-08-24 05:44:00,
2013-08-24 00:50:00,57.7,54.8,30.14,ESE,105,0.0,0.0,90,0.00,,,0.00,Wunderground v.1.15,2013-08-24 05:50:00,
2013-08-24 00:56:00,57.6,54.7,30.14,ESE,105,0.0,0.0,90,0.00,,,0.00,Wunderground v.1.15,2013-08-24 05:56:00,
2013-08-24 01:02:00,57.6,55.0,30.14,ESE,105,0.0,0.0,91,0.00,,,0.00,Wunderground v.1.15,2013-08-24 06:02:00,
2013-08-24 01:08:00,57.5,54.9,30.14,ESE,105,0.0,0.0,91,0.00,,,0.00,Wunderground v.1.15,2013-08-24 06:08:00,
2013-08-24 01:14:00,57.5,54.9,30.14,ESE,105,0.0,0.0,91,0.00,,,0.00,Wunderground v.1.15,2013-08-24 06:14:00,
2013-08-24 01:20:00,57.4,54.8,30.14,ESE,105,0.0,0.0,91,0.00,,,0.00,Wunderground v.1.15,2013-08-24 06:20:00,
2013-08-24 01:26:00,57.3,55.0,30.14,ESE,105,0.0,0.0,92,0.00,,,0.00,Wunderground v.1.15,2013-08-24 06:26:00,
2013-08-24 01:32:00,57.3,54.7,30.14,ESE,105,0.0,0.0,91,0.00,,,0.00,Wunderground v.1.15,2013-08-24 06:32:00,
2013-08-24 01:38:00,57.2,54.9,30.14,ESE,105,0.0,0.0,92,0.00,,,0.00,Wunderground v.1.15,2013-08-24 06:38:00,
2013-08-24 01:44:00,57.1,54.8,30.14,ESE,105,0.0,0.0,92,0.00,,,0.00,Wunderground v.1.15,2013-08-24 06:44:00,
2013-08-24 01:50:00,57.0,54.7,30.14,ESE,105,0.0,0.0,92,0.00,,,0.00,Wunderground v.1.15,2013-08-24 06:50:00,
2013-08-24 01:56:00,56.8,54.5,30.14,ESE,105,0.0,0.0,92,0.00,,,0.00,Wunderground v.1.15,2013-08-24 06:56:00,
2013-08-24 02:02:00,56.7,54.4,30.13,ESE,105,0.0,0.0,92,0.00,,,0.00,Wunderground v.1.15,2013-08-24 07:02:00,
2013-08-24 02:08:00,56.6,54.3,30.13,ESE,105,0.0,0.0,92,0.00,,,0.00,Wunderground v.1.15,2013-08-24 07:08:00,
2013-08-24 02:14:00,56.4,54.1,30.14,ESE,105,0.0,0.0,92,0.00,,,0.00,Wunderground v.1.15,2013-08-24 07:14:00,
2013-08-24 02:20:00,56.3,54.3,30.14,ESE,105,0.0,0.0,93,0.00,,,0.00,Wunderground v.1.15,2013-08-24 07:20:00,
2013-08-24 02:26:00,56.3,54.3,30.15,ESE,105,0.0,0.0,93,0.00,,,0.00,Wunderground v.1.15,2013-08-24 07:26:00,
2013-08-24 02:32:00,56.3,54.3,30.15,ESE,105,0.0,0.0,93,0.00,,,0.00,Wunderground v.1.15,2013-08-24 07:32:00,
2013-08-24 02:38:00,56.3,54.3,30.15,ESE,105,0.0,0.0,93,0.00,,,0.00,Wunderground v.1.15,2013-08-24 07:38:00,
2013-08-24 02:44:00,56.2,54.2,30.15,ESE,105,0.0,0.0,93,0.00,,,0.00,Wunderground v.1.15,2013-08-24 07:44:00,
2013-08-24 02:50:00,56.2,54.2,30.15,ESE,105,0.0,0.0,93,0.00,,,0.00,Wunderground v.1.15,2013-08-24 07:50:00,
2013-08-24 02:56:00,56.3,54.3,30.15,ESE,105,0.0,0.0,93,0.00,,,0.00,Wunderground v.1.15,2013-08-24 07:56:00,
2013-08-24 03:02:00,56.4,54.4,30.15,ESE,105,0.0,0.0,93,0.00,,,0.00,Wunderground v.1.15,2013-08-24 08:02:00,
2013-08-24 03:08:00,56.3,54.3,30.16,ESE,105,0.0,0.0,93,0.00,,,0.00,Wunderground v.1.15,2013-08-24 08:08:00,
2013-08-24 03:14:00,56.2,54.2,30.16,ESE,105,0.0,0.0,93,0.00,,,0.00,Wunderground v.1.15,2013-08-24 08:14:00,
2013-08-24 03:20:00,56.2,54.2,30.16,ESE,105,0.0,0.0,93,0.00,,,0.00,Wunderground v.1.15,2013-08-24 08:20:00,
2013-08-24 03:26:00,56.2,54.2,30.16,ESE,105,0.0,0.0,93,0.00,,,0.00,Wunderground v.1.15,2013-08-24 08:26:00,
2013-08-24 03:32:00,56.1,54.1,30.16,ESE,105,0.0,0.0,93,0.00,,,0.00,Wunderground v.1.15,2013-08-24 08:32:00,
2013-08-24 03:38:00,56.0,54.0,30.16,ESE,105,0.0,0.0,93,0.00,,,0.00,Wunderground v.1.15,2013-08-24 08:38:00,
2013-08-24 03:44:00,56.0,54.0,30.16,ESE,105,0.0,0.0,93,0.00,,,0.00,Wunderground v.1.15,2013-08-24 08:44:00,
2013-08-24 03:50:00,55.9,53.9,30.16,ESE,105,0.0,0.0,93,0.00,,,0.00,Wunderground v.1.15,2013-08-24 08:50:00,
2013-08-24 03:56:00,55.8,53.8,30.17,ESE,105,0.0,0.0,93,0.00,,,0.00,Wunderground v.1.15,2013-08-24 08:56:00,
2013-08-24 04:02:00,55.6,53.6,30.16,ESE,105,0.0,0.0,93,0.00,,,0.00,Wunderground v.1.15,2013-08-24 09:02:00,
2013-08-24 04:08:00,55.5,53.5,30.16,ESE,105,0.0,0.0,93,0.00,,,0.00,Wunderground v.1.15,2013-08-24 09:08:00,
2013-08-24 04:14:00,55.4,53.7,30.16,ESE,105,0.0,0.0,94,0.00,,,0.00,Wunderground v.1.15,2013-08-24 09:14:00,
2013-08-24 04:20:00,55.4,53.7,30.16,ESE,105,0.0,0.0,94,0.00,,,0.00,Wunderground v.1.15,2013-08-24 09:20:00,
2013-08-24 04:26:00,55.5,53.8,30.16,ESE,105,0.0,0.0,94,0.00,,,0.00,Wunderground v.1.15,2013-08-24 09:26:00,
2013-08-24 04:32:00,55.4,53.7,30.17,ESE,105,0.0,0.0,94,0.00,,,0.00,Wunderground v.1.15,2013-08-24 09:32:00,
2013-08-24 04:38:00,55.4,53.7,30.17,ESE,105,0.0,0.0,94,0.00,,,0.00,Wunderground v.1.15,2013-08-24 09:38:00,
2013-08-24 04:44:00,55.4,53.7,30.17,ESE,105,0.0,0.0,94,0.00,,,0.00,Wunderground v.1.15,2013-08-24 09:44:00,
2013-08-24 04:50:00,55.4,53.7,30.17,ESE,105,0.0,0.0,94,0.00,,,0.00,Wunderground v.1.15,2013-08-24 09:50:00,
2013-08-24 04:56:00,55.4,53.7,30.17,ESE,105,0.0,0.0,94,0.00,,,0.00,Wunderground v.1.15,2013-08-24 09:56:00,
2013-08-24 05:02:00,55.5,53.8,30.16,ESE,105,0.0,0.0,94,0.00,,,0.00,Wunderground v.1.15,2013-08-24 10:02:00,
2013-08-24 05:08:00,55.5,53.8,30.16,ESE,105,0.0,0.0,94,0.00,,,0.00,Wunderground v.1.15,2013-08-24 10:08:00,
2013-08-24 05:14:00,55.5,53.8,30.17,ESE,105,0.0,0.0,94,0.00,,,0.00,Wunderground v.1.15,2013-08-24 10:14:00,
2013-08-24 05:20:00,55.6,54.2,30.17,ESE,105,0.0,0.0,95,0.00,,,0.00,Wunderground v.1.15,2013-08-24 10:20:00,
2013-08-24 05:26:00,55.6,54.2,30.17,ESE,105,0.0,0.0,95,0.00,,,0.00,Wunderground v.1.15,2013-08-24 10:26:00,
2013-08-24 05:32:00,55.5,53.8,30.17,ESE,105,0.0,0.0,94,0.00,,,0.00,Wunderground v.1.15,2013-08-24 10:32:00,
2013-08-24 05:38:00,55.5,54.1,30.17,ESE,105,0.0,0.0,95,0.00,,,0.00,Wunderground v.1.15,2013-08-24 10:38:00,
2013-08-24 05:44:00,55.5,54.1,30.17,ESE,105,0.0,0.0,95,0.00,,,0.00,Wunderground v.1.15,2013-08-24 10:44:00,
2013-08-24 05:50:00,55.5,54.1,30.18,ESE,105,0.0,0.0,95,0.00,,,0.00,Wunderground v.1.15,2013-08-24 10:50:00,
2013-08-24 05:56:00,55.4,54.0,30.18,ESE,105,0.0,0.0,95,0.00,,,0.00,Wunderground v.1.15,2013-08-24 10:56:00,
2013-08-24 06:02:00,55.5,54.1,30.18,ESE,105,0.0,0.0,95,0.00,,,0.00,Wunderground v.1.15,2013-08-24 11:02:00,
2013-08-24 06:08:00,55.6,54.2,30.18,ESE,105,0.0,0.0,95,0.00,,,0.00,Wunderground v.1.15,2013-08-24 11:08:00,
2013-08-24 06:14:00,55.6,54.2,30.18,ESE,105,0.0,0.0,95,0.00,,,0.00,Wunderground v.1.15,2013-08-24 11:14:00,
2013-08-24 06:20:00,55.7,54.3,30.18,ESE,105,0.0,0.0,95,0.00,,,0.00,Wunderground v.1.15,2013-08-24 11:20:00,
2013-08-24 06:26:00,55.7,54.3,30.19,ESE,105,0.0,0.0,95,0.00,,,0.00,Wunderground v.1.15,2013-08-24 11:26:00,
2013-08-24 06:32:00,55.8,54.4,30.19,ESE,105,0.0,0.0,95,0.00,,,0.00,Wunderground v.1.15,2013-08-24 11:32:00,
2013-08-24 06:38:00,55.9,54.5,30.19,ESE,105,0.0,0.0,95,0.00,,,0.00,Wunderground v.1.15,2013-08-24 11:38:00,
2013-08-24 06:44:00,55.9,54.5,30.19,ESE,105,0.0,0.0,95,0.00,,,0.00,Wunderground v.1.15,2013-08-24 11:44:00,
2013-08-24 06:50:00,56.0,54.6,30.20,ESE,105,0.0,0.0,95,0.00,,,0.00,Wunderground v.1.15,2013-08-24 11:50:00,
2013-08-24 06:56:00,56.3,54.9,30.20,ESE,105,0.0,0.0,95,0.00,,,0.00,Wunderground v.1.15,2013-08-24 11:56:00,
2013-08-24 07:02:00,56.6,55.5,30.20,ESE,106,0.0,0.0,96,0.00,,,0.00,Wunderground v.1.15,2013-08-24 12:02:00,
2013-08-24 07:08:00,56.9,55.8,30.20,ESE,106,0.0,0.0,96,0.00,,,0.00,Wunderground v.1.15,2013-08-24 12:08:00,
2013-08-24 07:14:00,57.4,56.3,30.20,ESE,105,0.0,0.0,96,0.00,,,0.00,Wunderground v.1.15,2013-08-24 12:14:00,
2013-08-24 07:20:00,58.1,57.0,30.20,ESE,106,0.0,0.0,96,0.00,,,0.00,Wunderground v.1.15,2013-08-24 12:20:00,
2013-08-24 07:26:00,58.8,57.7,30.21,ESE,106,0.0,0.0,96,0.00,,,0.00,Wunderground v.1.15,2013-08-24 12:26:00,
2013-08-24 07:32:00,59.6,58.5,30.21,ESE,106,0.0,0.0,96,0.00,,,0.00,Wunderground v.1.15,2013-08-24 12:32:00,
2013-08-24 07:38:00,60.6,59.5,30.21,ESE,106,0.0,0.0,96,0.00,,,0.00,Wunderground v.1.15,2013-08-24 12:38:00,
2013-08-24 07:44:00,61.6,60.4,30.21,ESE,105,0.0,0.0,96,0.00,,,0.00,Wunderground v.1.15,2013-08-24 12:44:00,
2013-08-24 07:50:00,62.5,61.3,30.21,ESE,106,0.0,0.0,96,0.00,,,0.00,Wunderground v.1.15,2013-08-24 12:50:00,
2013-08-24 07:56:00,63.3,61.8,30.21,ESE,106,0.0,0.0,95,0.00,,,0.00,Wunderground v.1.15,2013-08-24 12:56:00,
2013-08-24 08:02:00,63.9,61.2,30.21,ESE,115,0.0,0.0,91,0.00,,,0.00,Wunderground v.1.15,2013-08-24 13:02:00,
2013-08-24 08:08:00,64.7,61.4,30.21,ESE,115,0.0,0.0,89,0.00,,,0.00,Wunderground v.1.15,2013-08-24 13:08:00,
2013-08-24 08:14:00,65.2,60.9,30.22,ESE,115,0.0,0.0,86,0.00,,,0.00,Wunderground v.1.15,2013-08-24 13:14:00,
2013-08-24 08:20:00,65.9,61.3,30.21,ESE,115,0.0,0.0,85,0.00,,,0.00,Wunderground v.1.15,2013-08-24 13:20:00,
2013-08-24 08:26:00,66.5,61.5,30.21,ESE,120,0.0,0.0,84,0.00,,,0.00,Wunderground v.1.15,2013-08-24 13:26:00,
2013-08-24 08:32:00,67.1,62.1,30.22,ESE,120,0.0,0.0,84,0.00,,,0.00,Wunderground v.1.15,2013-08-24 13:32:00,
2013-08-24 08:38:00,67.8,62.1,30.22,ESE,121,0.0,0.0,82,0.00,,,0.00,Wunderground v.1.15,2013-08-24 13:38:00,
2013-08-24 08:44:00,68.2,62.1,30.22,ESE,121,0.0,0.0,81,0.00,,,0.00,Wunderground v.1.15,2013-08-24 13:44:00,
2013-08-24 08:50:00,68.7,62.6,30.22,ESE,121,0.0,0.0,81,0.00,,,0.00,Wunderground v.1.15,2013-08-24 13:50:00,
2013-08-24 08:56:00,69.3,62.9,30.22,SE,126,0.0,0.0,80,0.00,,,0.00,Wunderground v.1.15,2013-08-24 13:56:00,
2013-08-24 09:02:00,69.9,63.8,30.22,SE,144,0.0,0.0,81,0.00,,,0.00,Wunderground v.1.15,2013-08-24 14:02:00,
2013-08-24 09:08:00,70.6,64.5,30.22,SE,135,0.0,0.0,81,0.00,,,0.00,Wunderground v.1.15,2013-08-24 14:08:00,
2013-08-24 09:14:00,71.3,64.4,30.22,SSE,150,0.0,0.0,79,0.00,,,0.00,Wunderground v.1.15,2013-08-24 14:14:00,
2013-08-24 09:20:00,72.1,65.2,30.22,SSE,150,0.0,0.0,79,0.00,,,0.00,Wunderground v.1.15,2013-08-24 14:20:00,
2013-08-24 09:26:00,73.0,66.1,30.22,SSE,149,0.0,0.0,79,0.00,,,0.00,Wunderground v.1.15,2013-08-24 14:26:00,
2013-08-24 09:32:00,73.5,65.8,30.22,South,173,0.0,0.0,77,0.00,,,0.00,Wunderground v.1.15,2013-08-24 14:32:00,
2013-08-24 09:38:00,74.1,66.4,30.21,South,173,0.0,0.0,77,0.00,,,0.00,Wunderground v.1.15,2013-08-24 14:38:00,
2013-08-24 09:44:00,74.5,65.7,30.21,South,178,0.0,0.0,74,0.00,,,0.00,Wunderground v.1.15,2013-08-24 14:44:00,
2013-08-24 09:50:00,74.8,66.3,30.21,SSE,149,0.0,0.0,75,0.00,,,0.00,Wunderground v.1.15,2013-08-24 14:50:00,
2013-08-24 09:56:00,75.2,65.9,30.21,SSE,150,0.0,0.0,73,0.00,,,0.00,Wunderground v.1.15,2013-08-24 14:56:00,
2013-08-24 10:02:00,75.7,66.8,30.22,SSE,155,0.0,0.0,74,0.00,,,0.00,Wunderground v.1.15,2013-08-24 15:02:00,
2013-08-24 10:08:00,76.2,66.9,30.22,SSE,155,0.0,0.0,73,0.00,,,0.00,Wunderground v.1.15,2013-08-24 15:08:00,
2013-08-24 10:14:00,76.7,66.6,30.21,SE,131,0.0,0.0,71,0.00,,,0.00,Wunderground v.1.15,2013-08-24 15:14:00,
2013-08-24 10:20:00,77.1,67.4,30.21,SSE,148,0.0,0.0,72,0.00,,,0.00,Wunderground v.1.15,2013-08-24 15:20:00,
2013-08-24 10:26:00,77.5,67.8,30.21,SE,142,0.0,1.0,72,0.00,,,0.00,Wunderground v.1.15,2013-08-24 15:26:00,
2013-08-24 10:32:00,77.9,68.5,30.21,SE,146,0.0,0.0,73,0.00,,,0.00,Wunderground v.1.15,2013-08-24 15:32:00,
2013-08-24 10:38:00,78.2,68.0,30.21,SSE,167,0.0,0.0,71,0.00,,,0.00,Wunderground v.1.15,2013-08-24 15:38:00,
2013-08-24 10:44:00,78.6,68.4,30.21,SE,139,0.0,1.0,71,0.00,,,0.00,Wunderground v.1.15,2013-08-24 15:44:00,
2013-08-24 10:50:00,78.8,68.2,30.21,SW,219,0.0,1.0,70,0.00,,,0.00,Wunderground v.1.15,2013-08-24 15:50:00,
2013-08-24 10:56:00,78.7,67.7,30.21,South,171,0.0,2.0,69,0.00,,,0.00,Wunderground v.1.15,2013-08-24 15:56:00,
2013-08-24 11:02:00,78.9,68.3,30.21,ESE,116,0.0,1.0,70,0.00,,,0.00,Wunderground v.1.15,2013-08-24 16:02:00,
2013-08-24 11:08:00,79.1,68.5,30.21,SSE,161,0.0,1.0,70,0.00,,,0.00,Wunderground v.1.15,2013-08-24 16:08:00,
2013-08-24 11:14:00,79.4,67.9,30.21,ESE,122,1.0,1.0,68,0.00,,,0.00,Wunderground v.1.15,2013-08-24 16:14:00,
2013-08-24 11:20:00,79.9,69.2,30.21,SE,138,0.0,0.0,70,0.00,,,0.00,Wunderground v.1.15,2013-08-24 16:20:00,
2013-08-24 11:26:00,80.3,70.0,30.21,SE,144,0.0,0.0,71,0.00,,,0.00,Wunderground v.1.15,2013-08-24 16:26:00,
2013-08-24 11:32:00,80.5,68.5,30.21,SE,136,1.0,1.0,67,0.00,,,0.00,Wunderground v.1.15,2013-08-24 16:32:00,
2013-08-24 11:38:00,80.7,70.4,30.21,SW,225,1.0,1.0,71,0.00,,,0.00,Wunderground v.1.15,2013-08-24 16:38:00,
2013-08-24 11:44:00,80.9,68.9,30.20,SE,138,0.0,0.0,67,0.00,,,0.00,Wunderground v.1.15,2013-08-24 16:44:00,
2013-08-24 11:50:00,80.9,68.9,30.20,SE,138,0.0,0.0,67,0.00,,,0.00,Wunderground v.1.15,2013-08-24 16:50:00,
2013-08-24 11:56:00,81.0,70.3,30.20,South,190,0.0,1.0,70,0.00,,,0.00,Wunderground v.1.15,2013-08-24 16:56:00,
2013-08-24 12:02:00,81.3,69.7,30.20,SSE,152,0.0,0.0,68,0.00,,,0.00,Wunderground v.1.15,2013-08-24 17:02:00,
2013-08-24 12:08:00,81.5,69.5,30.20,ESE,123,0.0,0.0,67,0.00,,,0.00,Wunderground v.1.15,2013-08-24 17:08:00,
2013-08-24 12:14:00,81.8,70.2,30.20,SSE,165,0.0,0.0,68,0.00,,,0.00,Wunderground v.1.15,2013-08-24 17:14:00,
2013-08-24 12:20:00,81.9,69.9,30.20,SE,138,0.0,2.0,67,0.00,,,0.00,Wunderground v.1.15,2013-08-24 17:20:00,
2013-08-24 12:26:00,82.3,69.8,30.20,SE,146,0.0,0.0,66,0.00,,,0.00,Wunderground v.1.15,2013-08-24 17:26:00,
2013-08-24 12:32:00,82.3,68.4,30.20,SSW,200,0.0,0.0,63,0.00,,,0.00,Wunderground v.1.15,2013-08-24 17:32:00,
2013-08-24 12:38:00,82.0,70.4,30.19,SE,145,0.0,1.0,68,0.00,,,0.00,Wunderground v.1.15,2013-08-24 17:38:00,
2013-08-24 12:44:00,82.2,69.7,30.19,SSW,211,0.0,0.0,66,0.00,,,0.00,Wunderground v.1.15,2013-08-24 17:44:00,
2013-08-24 12:50:00,82.4,70.8,30.19,South,175,0.0,2.0,68,0.00,,,0.00,Wunderground v.1.15,2013-08-24 17:50:00,
2013-08-24 12:56:00,82.5,69.5,30.19,SSW,196,0.0,0.0,65,0.00,,,0.00,Wunderground v.1.15,2013-08-24 17:56:00,
2013-08-24 13:02:00,82.6,69.2,30.19,SE,133,0.0,5.0,64,0.00,,,0.00,Wunderground v.1.15,2013-08-24 18:02:00,
2013-08-24 13:08:00,82.8,69.4,30.19,SSE,162,0.0,5.0,64,0.00,,,0.00,Wunderground v.1.15,2013-08-24 18:08:00,
2013-08-24 13:14:00,82.9,69.5,30.19,SE,128,0.0,0.0,64,0.00,,,0.00,Wunderground v.1.15,2013-08-24 18:14:00,
2013-08-24 13:20:00,82.8,68.9,30.19,SE,136,0.0,0.0,63,0.00,,,0.00,Wunderground v.1.15,2013-08-24 18:20:00,
2013-08-24 13:26:00,82.7,70.6,30.19,SSE,159,0.0,0.0,67,0.00,,,0.00,Wunderground v.1.15,2013-08-24 18:26:00,
2013-08-24 13:32:00,82.7,69.7,30.19,South,180,0.0,0.0,65,0.00,,,0.00,Wunderground v.1.15,2013-08-24 18:32:00,
2013-08-24 13:38:00,82.9,71.7,30.19,SE,142,0.0,0.0,69,0.00,,,0.00,Wunderground v.1.15,2013-08-24 18:38:00,
2013-08-24 13:44:00,83.0,69.1,30.19,SSE,167,0.0,2.0,63,0.00,,,0.00,Wunderground v.1.15,2013-08-24 18:44:00,
2013-08-24 13:50:00,82.8,70.3,30.18,SSE,168,0.0,0.0,66,0.00,,,0.00,Wunderground v.1.15,2013-08-24 18:50:00,
2013-08-24 13:56:00,83.1,69.7,30.18,SSE,166,0.0,1.0,64,0.00,,,0.00,Wunderground v.1.15,2013-08-24 18:56:00,
2013-08-24 14:02:00,83.3,69.8,30.18,SE,130,0.0,0.0,64,0.00,,,0.00,Wunderground v.1.15,2013-08-24 19:02:00,
2013-08-24 14:08:00,83.2,70.7,30.18,SE,140,0.0,0.0,66,0.00,,,0.00,Wunderground v.1.15,2013-08-24 19:08:00,
2013-08-24 14:14:00,83.2,70.2,30.18,South,178,0.0,0.0,65,0.00,,,0.00,Wunderground v.1.15,2013-08-24 19:14:00,
2013-08-24 14:20:00,82.8,70.7,30.18,SE,140,0.0,1.0,67,0.00,,,0.00,Wunderground v.1.15,2013-08-24 19:20:00,
2013-08-24 14:26:00,82.4,69.4,30.18,SSE,158,0.0,1.0,65,0.00,,,0.00,Wunderground v.1.15,2013-08-24 19:26:00,
2013-08-24 14:32:00,82.4,70.8,30.18,SSW,200,0.0,4.0,68,0.00,,,0.00,Wunderground v.1.15,2013-08-24 19:32:00,
2013-08-24 14:38:00,82.7,71.1,30.18,SSW,196,0.0,4.0,68,0.00,,,0.00,Wunderground v.1.15,2013-08-24 19:38:00,
2013-08-24 14:44:00,82.6,70.1,30.18,SSE,167,0.0,0.0,66,0.00,,,0.00,Wunderground v.1.15,2013-08-24 19:44:00,
2013-08-24 14:50:00,83.0,70.5,30.17,SSE,158,0.0,0.0,66,0.00,,,0.00,Wunderground v.1.15,2013-08-24 19:50:00,
2013-08-24 14:56:00,83.1,71.9,30.17,SSE,155,0.0,0.0,69,0.00,,,0.00,Wunderground v.1.15,2013-08-24 19:56:00,
2013-08-24 15:02:00,83.6,70.1,30.17,SE,132,0.0,0.0,64,0.00,,,0.00,Wunderground v.1.15,2013-08-24 20:02:00,
2013-08-24 15:08:00,84.1,71.1,30.17,South,173,0.0,0.0,65,0.00,,,0.00,Wunderground v.1.15,2013-08-24 20:08:00,
2013-08-24 15:14:00,84.1,70.6,30.17,SSW,213,0.0,2.0,64,0.00,,,0.00,Wunderground v.1.15,2013-08-24 20:14:00,
2013-08-24 15:20:00,84.1,71.5,30.17,SSE,153,0.0,0.0,66,0.00,,,0.00,Wunderground v.1.15,2013-08-24 20:20:00,
2013-08-24 15:26:00,84.3,71.7,30.16,SSE,161,0.0,0.0,66,0.00,,,0.00,Wunderground v.1.15,2013-08-24 20:26:00,
2013-08-24 15:32:00,84.2,69.8,30.16,SE,133,0.0,2.0,62,0.00,,,0.00,Wunderground v.1.15,2013-08-24 20:32:00,
2013-08-24 15:38:00,83.9,69.5,30.16,SE,141,1.0,2.0,62,0.00,,,0.00,Wunderground v.1.15,2013-08-24 20:38:00,
2013-08-24 15:44:00,83.9,69.5,30.16,SSE,158,0.0,1.0,62,0.00,,,0.00,Wunderground v.1.15,2013-08-24 20:44:00,
2013-08-24 15:50:00,83.9,71.3,30.16,SE,140,0.0,2.0,66,0.00,,,0.00,Wunderground v.1.15,2013-08-24 20:50:00,
2013-08-24 15:56:00,83.8,69.9,30.15,SSW,198,0.0,2.0,63,0.00,,,0.00,Wunderground v.1.15,2013-08-24 20:56:00,
2013-08-24 16:02:00,84.2,71.2,30.15,SW,221,0.0,0.0,65,0.00,,,0.00,Wunderground v.1.15,2013-08-24 21:02:00,
2013-08-24 16:08:00,84.4,70.9,30.15,SSE,167,0.0,0.0,64,0.00,,,0.00,Wunderground v.1.15,2013-08-24 21:08:00,
2013-08-24 16:14:00,84.7,70.7,30.15,SSE,165,0.0,1.0,63,0.00,,,0.00,Wunderground v.1.15,2013-08-24 21:14:00,
2013-08-24 16:20:00,84.2,70.7,30.15,SSE,150,0.0,0.0,64,0.00,,,0.00,Wunderground v.1.15,2013-08-24 21:20:00,
2013-08-24 16:26:00,84.3,69.9,30.15,SSE,167,0.0,0.0,62,0.00,,,0.00,Wunderground v.1.15,2013-08-24 21:26:00,
2013-08-24 16:32:00,83.9,70.0,30.15,SSE,158,0.0,0.0,63,0.00,,,0.00,Wunderground v.1.15,2013-08-24 21:32:00,
2013-08-24 16:38:00,83.6,70.1,30.14,SSE,165,0.0,1.0,64,0.00,,,0.00,Wunderground v.1.15,2013-08-24 21:38:00,
2013-08-24 16:44:00,83.8,70.8,30.14,SE,135,0.0,0.0,65,0.00,,,0.00,Wunderground v.1.15,2013-08-24 21:44:00,
2013-08-24 16:50:00,83.8,70.3,30.15,SE,129,0.0,1.0,64,0.00,,,0.00,Wunderground v.1.15,2013-08-24 21:50:00,
2013-08-24 16:56:00,83.6,71.0,30.14,South,172,0.0,1.0,66,0.00,,,0.00,Wunderground v.1.15,2013-08-24 21:56:00,
2013-08-24 17:02:00,83.4,70.4,30.14,SSE,150,0.0,0.0,65,0.00,,,0.00,Wunderground v.1.15,2013-08-24 22:02:00,
2013-08-24 17:08:00,83.3,71.2,30.14,SSE,150,0.0,0.0,67,0.00,,,0.00,Wunderground v.1.15,2013-08-24 22:08:00,
2013-08-24 17:14:00,83.2,69.8,30.14,SE,144,0.0,0.0,64,0.00,,,0.00,Wunderground v.1.15,2013-08-24 22:14:00,
2013-08-24 17:20:00,83.1,69.7,30.14,SE,136,0.0,4.0,64,0.00,,,0.00,Wunderground v.1.15,2013-08-24 22:20:00,
2013-08-24 17:26:00,82.9,70.4,30.14,SE,145,0.0,4.0,66,0.00,,,0.00,Wunderground v.1.15,2013-08-24 22:26:00,
2013-08-24 17:32:00,83.0,70.9,30.14,South,175,0.0,0.0,67,0.00,,,0.00,Wunderground v.1.15,2013-08-24 22:32:00,
2013-08-24 17:38:00,82.9,69.9,30.14,SE,132,0.0,0.0,65,0.00,,,0.00,Wunderground v.1.15,2013-08-24 22:38:00,
2013-08-24 17:44:00,82.8,70.7,30.14,SE,144,0.0,1.0,67,0.00,,,0.00,Wunderground v.1.15,2013-08-24 22:44:00,
2013-08-24 17:50:00,82.6,69.6,30.14,SSE,150,0.0,0.0,65,0.00,,,0.00,Wunderground v.1.15,2013-08-24 22:50:00,
2013-08-24 17:56:00,82.3,70.7,30.14,SE,142,0.0,0.0,68,0.00,,,0.00,Wunderground v.1.15,2013-08-24 22:56:00,
2013-08-24 18:02:00,82.2,71.0,30.14,SSE,161,0.0,0.0,69,0.00,,,0.00,Wunderground v.1.15,2013-08-24 23:02:00,
2013-08-24 18:08:00,82.1,70.5,30.13,SSE,160,0.0,0.0,68,0.00,,,0.00,Wunderground v.1.15,2013-08-24 23:08:00,
2013-08-24 18:14:00,81.9,70.7,30.14,ESE,122,0.0,0.0,69,0.00,,,0.00,Wunderground v.1.15,2013-08-24 23:14:00,
2013-08-24 18:20:00,81.8,71.1,30.14,ESE,122,0.0,0.0,70,0.00,,,0.00,Wunderground v.1.15,2013-08-24 23:20:00,
2013-08-24 18:26:00,81.7,71.0,30.14,ESE,122,0.0,0.0,70,0.00,,,0.00,Wunderground v.1.15,2013-08-24 23:26:00,
2013-08-24 18:32:00,81.4,71.1,30.14,ESE,122,0.0,0.0,71,0.00,,,0.00,Wunderground v.1.15,2013-08-24 23:32:00,
2013-08-24 18:38:00,81.1,70.8,30.14,ESE,122,0.0,0.0,71,0.00,,,0.00,Wunderground v.1.15,2013-08-24 23:38:00,
2013-08-24 18:44:00,80.6,70.7,30.14,ESE,122,0.0,0.0,72,0.00,,,0.00,Wunderground v.1.15,2013-08-24 23:44:00,
2013-08-24 18:50:00,80.0,70.6,30.14,ESE,122,0.0,0.0,73,0.00,,,0.00,Wunderground v.1.15,2013-08-24 23:50:00,
2013-08-24 18:56:00,79.5,70.5,30.14,ESE,122,0.0,0.0,74,0.00,,,0.00,Wunderground v.1.15,2013-08-24 23:56:00,
2013-08-24 19:02:00,79.0,70.4,30.14,ESE,122,0.0,0.0,75,0.00,,,0.00,Wunderground v.1.15,2013-08-25 00:02:00,
2013-08-24 19:08:00,78.5,70.3,30.14,ESE,122,0.0,0.0,76,0.00,,,0.00,Wunderground v.1.15,2013-08-25 00:08:00,
2013-08-24 19:14:00,77.9,70.1,30.14,ESE,122,0.0,0.0,77,0.00,,,0.00,Wunderground v.1.15,2013-08-25 00:14:00,
2013-08-24 19:20:00,77.3,69.9,30.14,ESE,122,0.0,0.0,78,0.00,,,0.00,Wunderground v.1.15,2013-08-25 00:20:00,
2013-08-24 19:26:00,76.5,69.5,30.14,ESE,122,0.0,0.0,79,0.00,,,0.00,Wunderground v.1.15,2013-08-25 00:26:00,
2013-08-24 19:32:00,76.0,69.0,30.14,ESE,122,0.0,0.0,79,0.00,,,0.00,Wunderground v.1.15,2013-08-25 00:32:00,
2013-08-24 19:38:00,75.4,69.2,30.14,ESE,122,0.0,0.0,81,0.00,,,0.00,Wunderground v.1.15,2013-08-25 00:38:00,
2013-08-24 19:44:00,74.8,68.6,30.14,ESE,122,0.0,0.0,81,0.00,,,0.00,Wunderground v.1.15,2013-08-25 00:44:00,
2013-08-24 19:50:00,74.4,68.5,30.14,ESE,122,0.0,0.0,82,0.00,,,0.00,Wunderground v.1.15,2013-08-25 00:50:00,
2013-08-24 19:56:00,74.0,68.2,30.14,ESE,122,0.0,0.0,82,0.00,,,0.00,Wunderground v.1.15,2013-08-25 00:56:00,
2013-08-24 20:02:00,73.6,68.1,30.14,ESE,122,0.0,0.0,83,0.00,,,0.00,Wunderground v.1.15,2013-08-25 01:02:00,
2013-08-24 20:08:00,73.2,67.7,30.15,ESE,122,0.0,0.0,83,0.00,,,0.00,Wunderground v.1.15,2013-08-25 01:08:00,
2013-08-24 20:14:00,73.0,67.9,30.15,ESE,122,0.0,0.0,84,0.00,,,0.00,Wunderground v.1.15,2013-08-25 01:14:00,
2013-08-24 20:20:00,72.6,67.5,30.15,ESE,122,0.0,0.0,84,0.00,,,0.00,Wunderground v.1.15,2013-08-25 01:20:00,
2013-08-24 20:26:00,72.3,67.5,30.15,ESE,122,0.0,0.0,85,0.00,,,0.00,Wunderground v.1.15,2013-08-25 01:26:00,
2013-08-24 20:32:00,72.0,66.9,30.15,ESE,122,0.0,0.0,84,0.00,,,0.00,Wunderground v.1.15,2013-08-25 01:32:00,
2013-08-24 20:38:00,71.7,66.6,30.15,ESE,122,0.0,0.0,84,0.00,,,0.00,Wunderground v.1.15,2013-08-25 01:38:00,
2013-08-24 20:44:00,71.6,66.5,30.15,ESE,122,0.0,0.0,84,0.00,,,0.00,Wunderground v.1.15,2013-08-25 01:44:00,
2013-08-24 20:50:00,71.6,66.2,30.16,ESE,122,0.0,0.0,83,0.00,,,0.00,Wunderground v.1.15,2013-08-25 01:50:00,
2013-08-24 20:56:00,71.5,66.1,30.16,ESE,122,0.0,0.0,83,0.00,,,0.00,Wunderground v.1.15,2013-08-25 01:56:00,
2013-08-24 21:02:00,71.4,66.0,30.16,ESE,122,0.0,0.0,83,0.00,,,0.00,Wunderground v.1.15,2013-08-25 02:02:00,
2013-08-24 21:08:00,71.2,65.4,30.16,ESE,122,0.0,0.0,82,0.00,,,0.00,Wunderground v.1.15,2013-08-25 02:08:00,
2013-08-24 21:14:00,71.0,65.2,30.16,ESE,122,0.0,0.0,82,0.00,,,0.00,Wunderground v.1.15,2013-08-25 02:14:00,
2013-08-24 21:20:00,71.0,65.2,30.16,ESE,120,0.0,0.0,82,0.00,,,0.00,Wunderground v.1.15,2013-08-25 02:20:00,
2013-08-24 21:26:00,71.0,64.9,30.16,East,98,0.0,1.0,81,0.00,,,0.00,Wunderground v.1.15,2013-08-25 02:26:00,
2013-08-24 21:32:00,70.9,64.4,30.17,SE,126,0.0,1.0,80,0.00,,,0.00,Wunderground v.1.15,2013-08-25 02:32:00,
2013-08-24 21:38:00,70.8,64.3,30.16,SE,137,0.0,1.0,80,0.00,,,0.00,Wunderground v.1.15,2013-08-25 02:38:00,
2013-08-24 21:44:00,70.8,64.0,30.16,ESE,119,0.0,0.0,79,0.00,,,0.00,Wunderground v.1.15,2013-08-25 02:44:00,
2013-08-24 21:50:00,70.7,63.9,30.16,SE,124,0.0,0.0,79,0.00,,,0.00,Wunderground v.1.15,2013-08-25 02:50:00,
2013-08-24 21:56:00,70.5,63.3,30.17,ESE,110,0.0,0.0,78,0.00,,,0.00,Wunderground v.1.15,2013-08-25 02:56:00,
2013-08-24 22:02:00,70.4,63.2,30.16,ESE,109,0.0,0.0,78,0.00,,,0.00,Wunderground v.1.15,2013-08-25 03:02:00,
2013-08-24 22:08:00,70.3,62.7,30.16,East,89,0.0,0.0,77,0.00,,,0.00,Wunderground v.1.15,2013-08-25 03:08:00,
2013-08-24 22:14:00,70.2,62.6,30.17,ESE,116,0.0,1.0,77,0.00,,,0.00,Wunderground v.1.15,2013-08-25 03:14:00,
2013-08-24 22:20:00,70.1,62.6,30.17,East,98,0.0,0.0,77,0.00,,,0.00,Wunderground v.1.15,2013-08-25 03:20:00,
2013-08-24 22:26:00,69.9,62.0,30.17,ESE,118,0.0,0.0,76,0.00,,,0.00,Wunderground v.1.15,2013-08-25 03:26:00,
2013-08-24 22:32:00,69.8,61.9,30.17,SE,124,0.0,0.0,76,0.00,,,0.00,Wunderground v.1.15,2013-08-25 03:32:00,
2013-08-24 22:38:00,69.5,62.0,30.17,ESE,115,0.0,0.0,77,0.00,,,0.00,Wunderground v.1.15,2013-08-25 03:38:00,
2013-08-24 22:44:00,69.3,61.8,30.17,ESE,119,0.0,2.0,77,0.00,,,0.00,Wunderground v.1.15,2013-08-25 03:44:00,
2013-08-24 22:50:00,69.0,61.5,30.17,SE,138,0.0,0.0,77,0.00,,,0.00,Wunderground v.1.15,2013-08-25 03:50:00,
2013-08-24 22:56:00,68.8,61.7,30.17,SE,138,0.0,0.0,78,0.00,,,0.00,Wunderground v.1.15,2013-08-25 03:56:00,
2013-08-24 23:02:00,68.5,61.7,30.17,SE,140,0.0,0.0,79,0.00,,,0.00,Wunderground v.1.15,2013-08-25 04:02:00,
2013-08-24 23:04:00,68.4,61.6,30.17,SE,140,0.0,0.0,79,0.00,,,0.00,Wunderground v.1.15,2013-08-25 04:04:00,
2013-08-24 23:06:00,68.3,61.5,30.17,SE,140,0.0,0.0,79,0.00,,,0.00,Wunderground v.1.15,2013-08-25 04:06:00,
2013-08-24 23:08:00,68.2,61.8,30.17,SE,140,0.0,0.0,80,0.00,,,0.00,Wunderground v.1.15,2013-08-25 04:08:00,
2013-08-24 23:14:00,67.9,61.9,30.17,SE,140,0.0,0.0,81,0.00,,,0.00,Wunderground v.1.15,2013-08-25 04:14:00,
2013-08-24 23:20:00,67.5,61.8,30.17,SE,140,0.0,0.0,82,0.00,,,0.00,Wunderground v.1.15,2013-08-25 04:20:00,
2013-08-24 23:26:00,67.2,61.5,30.17,SE,140,0.0,0.0,82,0.00,,,0.00,Wunderground v.1.15,2013-08-25 04:26:00,
2013-08-24 23:32:00,66.9,61.6,30.17,SE,140,0.0,0.0,83,0.00,,,0.00,Wunderground v.1.15,2013-08-25 04:32:00,
2013-08-24 23:38:00,66.8,61.8,30.17,SE,140,0.0,0.0,84,0.00,,,0.00,Wunderground v.1.15,2013-08-25 04:38:00,
2013-08-24 23:44:00,66.6,61.6,30.16,SE,140,0.0,0.0,84,0.00,,,0.00,Wunderground v.1.15,2013-08-25 04:44:00,
2013-08-24 23:50:00,66.5,61.5,30.17,SSE,147,0.0,0.0,84,0.00,,,0.00,Wunderground v.1.15,2013-08-25 04:50:00,
2013-08-24 23:56:00,66.4,61.8,30.16,SSE,147,0.0,0.0,85,0.00,,,0.00,Wunderground v.1.15,2013-08-25 04:56:00,